createdAt,value
2019-04-26T00:01:16.124Z,19.10
2019-04-26T00:03:46.527Z,19.10
2019-04-26T00:06:16.689Z,19.00
2019-04-26T00:08:50.625Z,19.00
2019-04-26T00:11:37.554Z,19.00
2019-04-26T00:14:29.148Z,19.00
2019-04-26T00:17:13.341Z,19.00
2019-04-26T00:19:42.997Z,19.00
2019-04-26T00:22:12.989Z,19.00
2019-04-26T00:24:42.660Z,18.90
2019-04-26T00:27:12.719Z,18.90
2019-04-26T00:29:42.025Z,18.90
2019-04-26T00:32:12.172Z,18.80
2019-04-26T00:34:42.183Z,18.80
2019-04-26T00:37:11.579Z,18.70
2019-04-26T00:39:41.843Z,18.70
2019-04-26T00:42:12.185Z,18.70
2019-04-26T00:44:42.179Z,18.50
2019-04-26T00:47:14.119Z,18.50
2019-04-26T00:49:44.573Z,18.40
2019-04-26T00:52:15.706Z,18.30
2019-04-26T00:54:45.629Z,18.20
2019-04-26T00:57:16.007Z,18.10
2019-04-26T00:59:45.667Z,18.00
2019-04-26T01:02:21.037Z,17.90
2019-04-26T01:04:50.251Z,17.90
2019-04-26T01:07:19.517Z,17.80
2019-04-26T01:09:48.771Z,17.70
2019-04-26T01:12:17.980Z,17.60
2019-04-26T01:14:47.171Z,17.60
2019-04-26T01:17:17.604Z,17.50
2019-04-26T01:19:48.471Z,17.50
2019-04-26T01:22:23.322Z,17.50
2019-04-26T01:24:54.995Z,17.40
2019-04-26T01:27:28.144Z,17.30
2019-04-26T01:30:00.695Z,17.30
2019-04-26T01:32:32.190Z,17.30
2019-04-26T01:35:01.380Z,17.20
2019-04-26T01:37:32.211Z,17.20
2019-04-26T01:40:07.067Z,17.20
2019-04-26T01:42:48.197Z,17.10
2019-04-26T01:45:25.832Z,17.00
2019-04-26T01:47:59.117Z,16.90
2019-04-26T01:50:30.329Z,16.90
2019-04-26T01:53:01.031Z,16.90
2019-04-26T01:55:32.566Z,16.80
2019-04-26T01:58:06.757Z,16.70
2019-04-26T02:00:47.608Z,16.70
2019-04-26T02:03:23.902Z,16.60
2019-04-26T02:05:54.583Z,16.50
2019-04-26T02:08:24.543Z,16.50
2019-04-26T02:10:53.791Z,16.40
2019-04-26T02:13:25.180Z,16.30
2019-04-26T02:15:54.699Z,16.30
2019-04-26T02:18:24.063Z,16.30
2019-04-26T02:21:14.302Z,16.20
2019-04-26T02:24:14.817Z,16.10
2019-04-26T02:26:46.264Z,16.10
2019-04-26T02:29:19.180Z,16.00
2019-04-26T02:31:52.296Z,15.90
2019-04-26T02:34:21.462Z,15.90
2019-04-26T02:36:57.899Z,15.90
2019-04-26T02:39:28.081Z,15.80
2019-04-26T02:42:02.356Z,15.70
2019-04-26T02:44:48.772Z,15.70
2019-04-26T02:47:41.255Z,15.60
2019-04-26T02:50:18.096Z,15.50
2019-04-26T02:53:04.029Z,15.50
2019-04-26T02:56:07.557Z,15.50
2019-04-26T02:59:00.792Z,15.40
2019-04-26T03:01:33.100Z,15.30
2019-04-26T03:04:01.430Z,15.30
2019-04-26T03:06:34.328Z,15.20
2019-04-26T03:09:07.130Z,15.10
2019-04-26T03:11:39.357Z,15.10
2019-04-26T03:14:31.245Z,15.00
2019-04-26T03:17:18.244Z,15.00
2019-04-26T03:20:00.982Z,14.90
2019-04-26T03:22:52.216Z,14.80
2019-04-26T03:25:47.617Z,14.80
2019-04-26T03:28:46.180Z,14.80
2019-04-26T03:31:24.180Z,14.70
2019-04-26T03:34:13.273Z,14.70
2019-04-26T03:37:21.459Z,14.70
2019-04-26T03:40:03.326Z,14.60
2019-04-26T03:43:08.025Z,14.60
2019-04-26T03:45:52.489Z,14.60
2019-04-26T03:48:45.680Z,14.50
2019-04-26T03:51:22.622Z,14.50
2019-04-26T03:54:00.455Z,14.50
2019-04-26T03:57:05.763Z,14.40
2019-04-26T03:59:56.932Z,14.40
2019-04-26T04:03:01.657Z,14.30
2019-04-26T04:05:41.975Z,14.30
2019-04-26T04:08:16.688Z,14.30
2019-04-26T04:10:55.851Z,14.30
2019-04-26T04:13:42.980Z,14.30
2019-04-26T04:16:46.736Z,14.30
2019-04-26T04:20:30.607Z,14.30
2019-04-26T04:23:16.784Z,14.20
2019-04-26T04:25:49.243Z,14.30
2019-04-26T04:28:49.884Z,14.30
2019-04-26T04:31:27.916Z,14.30
2019-04-26T04:34:17.788Z,14.30
2019-04-26T04:36:51.378Z,14.40
2019-04-26T04:39:36.773Z,14.40
2019-04-26T04:42:24.459Z,14.30
2019-04-26T04:45:30.183Z,14.30
2019-04-26T04:48:20.896Z,14.30
2019-04-26T04:51:12.214Z,14.30
2019-04-26T04:53:55.236Z,14.30
2019-04-26T04:56:53.584Z,14.30
2019-04-26T04:59:30.281Z,14.30
2019-04-26T05:02:22.029Z,14.30
2019-04-26T05:05:16.688Z,14.30
2019-04-26T05:08:06.489Z,14.30
2019-04-26T05:10:58.152Z,14.30
2019-04-26T05:13:55.500Z,14.30
2019-04-26T05:16:50.570Z,14.30
2019-04-26T05:19:55.934Z,14.30
2019-04-26T05:22:55.470Z,14.30
2019-04-26T05:25:57.127Z,14.40
2019-04-26T05:28:54.419Z,14.40
2019-04-26T05:31:34.111Z,14.40
2019-04-26T05:34:33.911Z,14.50
2019-04-26T05:37:29.395Z,14.50
2019-04-26T05:40:28.368Z,14.60
2019-04-26T05:43:43.224Z,14.60
2019-04-26T05:47:10.395Z,14.70
2019-04-26T05:50:35.685Z,14.80
2019-04-26T05:53:31.210Z,15.00
2019-04-26T05:56:41.574Z,15.20
2019-04-26T05:59:27.369Z,15.30
2019-04-26T06:03:01.357Z,15.50
2019-04-26T06:06:05.385Z,15.60
2019-04-26T06:09:06.646Z,15.70
2019-04-26T06:11:45.472Z,15.80
2019-04-26T06:14:36.811Z,15.80
2019-04-26T06:18:10.383Z,15.90
2019-04-26T06:20:52.935Z,16.10
2019-04-26T06:23:31.851Z,16.30
2019-04-26T06:26:40.356Z,16.40
2019-04-26T06:29:19.459Z,16.50
2019-04-26T06:32:00.517Z,16.60
2019-04-26T06:35:01.584Z,16.60
2019-04-26T06:37:50.324Z,16.60
2019-04-26T06:40:41.868Z,16.70
2019-04-26T06:43:22.123Z,16.60
2019-04-26T06:46:35.760Z,16.60
2019-04-26T06:49:35.291Z,16.50
2019-04-26T06:52:11.381Z,16.40
2019-04-26T06:55:08.432Z,16.40
2019-04-26T06:58:21.171Z,16.40
2019-04-26T07:01:20.462Z,16.30
2019-04-26T07:04:19.019Z,16.20
2019-04-26T07:07:07.522Z,16.20
2019-04-26T07:09:50.563Z,16.20
2019-04-26T07:12:51.520Z,16.30
2019-04-26T07:15:46.490Z,16.30
2019-04-26T07:18:56.951Z,16.40
2019-04-26T07:21:52.518Z,16.40
2019-04-26T07:25:20.524Z,16.50
2019-04-26T07:28:12.592Z,16.60
2019-04-26T07:30:59.679Z,16.80
2019-04-26T07:33:57.464Z,16.90
2019-04-26T07:37:06.769Z,17.10
2019-04-26T07:40:13.976Z,17.30
2019-04-26T07:43:12.544Z,17.50
2019-04-26T07:46:09.300Z,17.60
2019-04-26T07:49:25.678Z,17.80
2019-04-26T07:52:53.152Z,18.00
2019-04-26T07:55:48.737Z,18.40
2019-04-26T07:59:05.999Z,18.80
2019-04-26T08:02:29.657Z,19.10
2019-04-26T08:05:07.689Z,19.40
2019-04-26T08:07:42.887Z,19.60
2019-04-26T08:10:16.893Z,19.50
2019-04-26T08:12:52.167Z,19.30
2019-04-26T08:15:48.476Z,19.10
2019-04-26T08:18:25.400Z,19.00
2019-04-26T08:21:02.457Z,18.90
2019-04-26T08:23:41.964Z,18.90
2019-04-26T08:26:13.660Z,18.80
2019-04-26T08:28:44.832Z,18.90
2019-04-26T08:31:21.103Z,19.20
2019-04-26T08:33:56.508Z,19.60
2019-04-26T08:36:28.729Z,20.00
2019-04-26T08:39:00.601Z,20.20
2019-04-26T08:41:30.729Z,20.20
2019-04-26T08:44:11.255Z,20.20
2019-04-26T08:47:00.096Z,20.40
2019-04-26T08:49:43.760Z,20.70
2019-04-26T08:52:15.969Z,21.00
2019-04-26T08:54:55.091Z,21.10
2019-04-26T08:57:28.527Z,21.00
2019-04-26T09:00:01.004Z,20.90
2019-04-26T09:02:54.851Z,20.70
2019-04-26T09:05:51.688Z,20.60
2019-04-26T09:08:24.114Z,20.60
2019-04-26T09:10:55.570Z,20.70
2019-04-26T09:13:28.527Z,20.70
2019-04-26T09:16:10.126Z,20.80
2019-04-26T09:18:43.710Z,20.80
2019-04-26T09:21:13.221Z,21.00
2019-04-26T09:23:59.355Z,21.00
2019-04-26T09:26:48.528Z,20.90
2019-04-26T09:29:30.557Z,20.70
2019-04-26T09:32:09.766Z,20.50
2019-04-26T09:34:41.289Z,20.30
2019-04-26T09:37:09.925Z,20.00
2019-04-26T09:39:41.596Z,19.80
2019-04-26T09:42:29.138Z,19.60
2019-04-26T09:45:21.363Z,19.50
2019-04-26T09:47:54.188Z,19.40
2019-04-26T09:50:31.615Z,19.30
2019-04-26T09:53:00.931Z,19.10
2019-04-26T09:55:35.660Z,18.90
2019-04-26T09:58:01.233Z,18.80
2019-04-26T10:00:31.387Z,18.70
2019-04-26T10:03:00.625Z,18.60
2019-04-26T10:05:29.891Z,18.60
2019-04-26T10:07:59.075Z,18.50
2019-04-26T10:10:30.895Z,18.50
2019-04-26T10:13:18.602Z,18.40
2019-04-26T10:16:11.352Z,18.30
2019-04-26T10:18:42.599Z,18.20
2019-04-26T10:21:12.214Z,18.20
2019-04-26T10:23:41.386Z,18.30
2019-04-26T10:26:10.565Z,18.40
2019-04-26T10:28:39.782Z,18.50
2019-04-26T10:31:09.060Z,18.90
2019-04-26T10:33:38.357Z,19.40
2019-04-26T10:36:07.511Z,19.70
2019-04-26T10:38:36.738Z,19.70
2019-04-26T10:41:06.289Z,19.60
2019-04-26T10:43:35.492Z,19.50
2019-04-26T10:46:06.367Z,19.40
2019-04-26T10:48:35.628Z,19.30
2019-04-26T10:51:07.423Z,19.20
2019-04-26T10:53:54.743Z,19.20
2019-04-26T10:56:48.930Z,19.20
2019-04-26T10:59:27.540Z,19.20
2019-04-26T11:01:56.824Z,19.20
2019-04-26T11:04:26.017Z,19.10
2019-04-26T11:06:58.039Z,19.20
2019-04-26T11:09:26.163Z,19.20
2019-04-26T11:11:55.435Z,19.20
2019-04-26T11:14:24.652Z,19.20
2019-04-26T11:16:54.323Z,19.20
2019-04-26T11:19:24.462Z,19.10
2019-04-26T11:21:54.778Z,19.00
2019-04-26T11:24:24.507Z,18.80
2019-04-26T11:26:53.726Z,18.80
2019-04-26T11:29:24.937Z,18.70
2019-04-26T11:31:54.207Z,18.60
2019-04-26T11:34:25.056Z,18.60
2019-04-26T11:36:54.253Z,18.60
2019-04-26T11:39:23.482Z,18.70
2019-04-26T11:41:52.667Z,18.90
2019-04-26T11:44:23.308Z,19.00
2019-04-26T11:46:52.887Z,19.20
2019-04-26T11:49:22.116Z,19.20
2019-04-26T11:51:51.371Z,19.30
2019-04-26T11:54:22.004Z,19.40
2019-04-26T11:56:51.417Z,19.40
2019-04-26T11:59:20.623Z,19.60
2019-04-26T12:01:49.835Z,19.80
2019-04-26T12:04:53.728Z,19.90
2019-04-26T12:07:26.971Z,20.10
2019-04-26T12:09:57.957Z,20.50
2019-04-26T12:12:27.170Z,20.70
2019-04-26T12:14:56.372Z,20.90
2019-04-26T12:17:27.108Z,21.00
2019-04-26T12:19:56.464Z,21.10
2019-04-26T12:22:25.664Z,21.00
2019-04-26T12:24:54.864Z,20.90
2019-04-26T12:27:26.577Z,20.60
2019-04-26T12:29:54.935Z,20.30
2019-04-26T12:32:24.107Z,19.90
2019-04-26T12:34:53.305Z,19.60
2019-04-26T12:37:22.533Z,19.40
2019-04-26T12:39:51.731Z,19.10
2019-04-26T12:42:21.159Z,19.00
2019-04-26T12:44:58.599Z,18.90
2019-04-26T12:47:38.676Z,18.80
2019-04-26T12:50:08.039Z,18.70
2019-04-26T12:52:37.564Z,18.50
2019-04-26T12:55:06.863Z,18.40
2019-04-26T12:57:36.470Z,18.20
2019-04-26T13:00:07.353Z,18.00
2019-04-26T13:02:36.625Z,17.90
2019-04-26T13:05:05.908Z,17.80
2019-04-26T13:07:35.099Z,17.70
2019-04-26T13:10:26.539Z,17.60
2019-04-26T13:13:21.939Z,17.60
2019-04-26T13:16:10.694Z,17.60
2019-04-26T13:18:41.089Z,17.50
2019-04-26T13:21:10.860Z,17.60
2019-04-26T13:23:40.256Z,17.70
2019-04-26T13:26:09.667Z,17.90
2019-04-26T13:28:38.923Z,17.90
2019-04-26T13:31:08.123Z,17.90
2019-04-26T13:33:37.332Z,18.00
2019-04-26T13:36:06.743Z,18.00
2019-04-26T13:38:39.280Z,18.10
2019-04-26T13:41:07.206Z,18.10
2019-04-26T13:43:36.470Z,18.10
2019-04-26T13:46:27.751Z,18.10
2019-04-26T13:49:28.160Z,18.20
2019-04-26T13:51:57.408Z,18.10
2019-04-26T13:54:26.667Z,18.10
2019-04-26T13:56:55.973Z,18.00
2019-04-26T13:59:28.168Z,17.90
2019-04-26T14:01:56.034Z,17.80
2019-04-26T14:04:25.343Z,17.80
2019-04-26T14:06:54.561Z,17.70
2019-04-26T14:09:23.778Z,17.60
2019-04-26T14:11:53.009Z,17.50
2019-04-26T14:14:22.312Z,17.50
2019-04-26T14:16:52.064Z,17.40
2019-04-26T14:19:22.351Z,17.50
2019-04-26T14:21:52.220Z,17.50
2019-04-26T14:24:45.339Z,17.50
2019-04-26T14:27:17.342Z,17.40
2019-04-26T14:29:46.573Z,17.40
2019-04-26T14:32:15.847Z,17.30
2019-04-26T14:34:45.277Z,17.30
2019-04-26T14:37:15.433Z,17.30
2019-04-26T14:39:50.632Z,17.30
2019-04-26T14:42:16.627Z,17.30
2019-04-26T14:44:49.532Z,17.30
2019-04-26T14:47:18.489Z,17.20
2019-04-26T14:49:48.039Z,17.10
2019-04-26T14:52:18.029Z,17.10
2019-04-26T14:54:47.719Z,17.00
2019-04-26T14:57:24.505Z,16.90
2019-04-26T14:59:56.935Z,16.80
2019-04-26T15:02:47.178Z,16.70
2019-04-26T15:05:24.640Z,16.70
2019-04-26T15:07:53.956Z,16.70
2019-04-26T15:10:25.088Z,16.60
2019-04-26T15:13:11.439Z,16.50
2019-04-26T15:15:26.931Z,16.40
2019-04-26T15:17:59.363Z,16.40
2019-04-26T15:20:28.291Z,16.40
2019-04-26T15:22:57.980Z,16.40
2019-04-26T15:25:27.511Z,16.30
2019-04-26T15:27:57.271Z,16.30
2019-04-26T15:30:26.476Z,16.20
2019-04-26T15:32:55.749Z,16.20
2019-04-26T15:35:28.351Z,16.10
2019-04-26T15:37:57.487Z,16.00
2019-04-26T15:40:46.420Z,15.90
2019-04-26T15:43:40.822Z,15.80
2019-04-26T15:46:42.618Z,15.70
2019-04-26T15:49:42.902Z,15.70
2019-04-26T15:52:12.255Z,15.60
2019-04-26T15:54:42.502Z,15.60
2019-04-26T15:57:12.306Z,15.60
2019-04-26T15:59:43.067Z,15.60
2019-04-26T16:02:12.540Z,15.60
2019-04-26T16:04:42.441Z,15.60
2019-04-26T16:07:16.642Z,15.50
2019-04-26T16:09:43.851Z,15.50
2019-04-26T16:12:13.419Z,15.40
2019-04-26T16:14:42.804Z,15.40
2019-04-26T16:17:12.503Z,15.30
2019-04-26T16:19:41.872Z,15.30
2019-04-26T16:22:11.043Z,15.20
2019-04-26T16:24:40.320Z,15.10
2019-04-26T16:27:09.524Z,15.10
2019-04-26T16:30:03.110Z,15.10
2019-04-26T16:32:58.988Z,15.00
2019-04-26T16:35:28.332Z,15.00
2019-04-26T16:38:00.164Z,14.90
2019-04-26T16:40:29.547Z,14.90
2019-04-26T16:42:59.798Z,14.80
2019-04-26T16:45:29.151Z,14.80
2019-04-26T16:47:58.427Z,14.80
2019-04-26T16:50:31.549Z,14.70
2019-04-26T16:52:58.485Z,14.60
2019-04-26T16:55:27.659Z,14.50
2019-04-26T16:57:58.361Z,14.40
2019-04-26T17:00:47.314Z,14.30
2019-04-26T17:03:02.976Z,14.10
2019-04-26T17:05:46.930Z,14.00
2019-04-26T17:08:05.064Z,13.80
2019-04-26T17:10:32.745Z,13.70
2019-04-26T17:13:03.171Z,13.50
2019-04-26T17:15:34.574Z,13.40
2019-04-26T17:18:03.342Z,13.30
2019-04-26T17:20:33.944Z,13.20
2019-04-26T17:23:12.406Z,13.10
2019-04-26T17:26:04.091Z,13.10
2019-04-26T17:28:33.329Z,13.00
2019-04-26T17:31:02.623Z,12.90
2019-04-26T17:33:32.667Z,12.80
2019-04-26T17:36:02.007Z,12.70
2019-04-26T17:38:31.315Z,12.60
2019-04-26T17:41:01.972Z,12.60
2019-04-26T17:43:31.163Z,12.60
2019-04-26T17:46:01.130Z,12.50
2019-04-26T17:48:30.545Z,12.50
2019-04-26T17:51:01.332Z,12.50
2019-04-26T17:53:33.203Z,12.50
2019-04-26T17:56:01.471Z,12.50
2019-04-26T17:58:34.206Z,12.50
2019-04-26T18:01:03.719Z,12.50
2019-04-26T18:03:32.795Z,12.50
2019-04-26T18:06:02.171Z,12.40
2019-04-26T18:08:40.688Z,12.30
2019-04-26T18:11:02.267Z,12.30
2019-04-26T18:13:32.141Z,12.20
2019-04-26T18:16:03.476Z,12.10
2019-04-26T18:18:57.632Z,12.10
2019-04-26T18:21:49.587Z,12.10
2019-04-26T18:24:19.841Z,12.00
2019-04-26T18:26:52.297Z,12.00
2019-04-26T18:29:25.195Z,12.00
2019-04-26T18:31:50.911Z,11.90
2019-04-26T18:34:20.120Z,11.90
2019-04-26T18:36:49.328Z,11.90
2019-04-26T18:39:22.841Z,11.80
2019-04-26T18:41:49.397Z,11.80
2019-04-26T18:44:18.615Z,11.80
2019-04-26T18:46:55.744Z,11.80
2019-04-26T18:49:27.174Z,11.80
2019-04-26T18:51:55.919Z,11.80
2019-04-26T18:54:53.231Z,11.80
2019-04-26T18:57:23.851Z,11.90
2019-04-26T18:59:53.165Z,11.90
2019-04-26T19:02:24.054Z,11.90
2019-04-26T19:04:53.279Z,11.90
2019-04-26T19:07:31.814Z,11.90
2019-04-26T19:09:59.557Z,11.90
2019-04-26T19:12:26.954Z,11.90
2019-04-26T19:15:29.507Z,11.90
2019-04-26T19:18:19.248Z,11.90
2019-04-26T19:20:53.463Z,11.80
2019-04-26T19:23:28.784Z,11.80
2019-04-26T19:25:53.611Z,11.80
2019-04-26T19:28:22.991Z,11.80
2019-04-26T19:30:53.208Z,11.80
2019-04-26T19:33:22.590Z,11.80
2019-04-26T19:35:51.789Z,11.80
2019-04-26T19:38:21.319Z,11.80
2019-04-26T19:40:52.084Z,11.80
2019-04-26T19:43:30.148Z,11.80
2019-04-26T19:46:16.928Z,11.80
2019-04-26T19:49:03.450Z,11.70
2019-04-26T19:51:43.668Z,11.70
2019-04-26T19:54:23.140Z,11.70
2019-04-26T19:57:01.102Z,11.70
2019-04-26T19:59:30.946Z,11.70
2019-04-26T20:01:58.539Z,11.70
2019-04-26T20:04:30.620Z,11.70
2019-04-26T20:06:58.700Z,11.70
2019-04-26T20:09:28.790Z,11.70
2019-04-26T20:11:59.326Z,11.70
2019-04-26T20:14:43.316Z,11.70
2019-04-26T20:16:59.536Z,11.60
2019-04-26T20:19:36.797Z,11.60
2019-04-26T20:22:01.377Z,11.60
2019-04-26T20:24:30.483Z,11.60
2019-04-26T20:27:01.458Z,11.60
2019-04-26T20:29:32.197Z,11.60
2019-04-26T20:32:32.710Z,11.60
2019-04-26T20:35:08.915Z,11.60
2019-04-26T20:37:38.303Z,11.60
2019-04-26T20:40:18.539Z,11.60
2019-04-26T20:42:39.480Z,11.60
2019-04-26T20:45:11.304Z,11.60
2019-04-26T20:47:41.548Z,11.60
2019-04-26T20:50:12.030Z,11.70
2019-04-26T20:52:45.126Z,11.60
2019-04-26T20:55:13.792Z,11.60
2019-04-26T20:57:44.775Z,11.60
2019-04-26T21:00:14.539Z,11.60
2019-04-26T21:02:43.758Z,11.60
2019-04-26T21:05:14.692Z,11.60
2019-04-26T21:07:49.212Z,11.60
2019-04-26T21:10:20.846Z,11.60
2019-04-26T21:12:47.364Z,11.60
2019-04-26T21:15:20.194Z,11.60
2019-04-26T21:17:47.745Z,11.60
2019-04-26T21:20:16.953Z,11.50
2019-04-26T21:22:46.211Z,11.60
2019-04-26T21:25:35.573Z,11.50
2019-04-26T21:28:16.748Z,11.60
2019-04-26T21:31:07.524Z,11.60
2019-04-26T21:33:42.918Z,11.60
2019-04-26T21:36:40.893Z,11.60
2019-04-26T21:39:25.823Z,11.60
2019-04-26T21:41:55.114Z,11.60
2019-04-26T21:44:24.682Z,11.60
2019-04-26T21:46:58.695Z,11.60
2019-04-26T21:49:25.035Z,11.60
2019-04-26T21:51:54.402Z,11.60
2019-04-26T21:54:25.257Z,11.50
2019-04-26T21:56:54.670Z,11.50
2019-04-26T21:59:24.429Z,11.50
2019-04-26T22:01:59.085Z,11.50
2019-04-26T22:04:28.731Z,11.50
2019-04-26T22:06:59.756Z,11.50
2019-04-26T22:09:55.199Z,11.40
2019-04-26T22:12:27.299Z,11.40
2019-04-26T22:15:21.475Z,11.40
2019-04-26T22:17:54.596Z,11.30
2019-04-26T22:20:54.960Z,11.30
2019-04-26T22:23:47.587Z,11.20
2019-04-26T22:26:17.478Z,11.20
2019-04-26T22:28:46.691Z,11.10
2019-04-26T22:31:15.967Z,11.10
2019-04-26T22:33:45.171Z,11.10
2019-04-26T22:36:14.389Z,11.00
2019-04-26T22:38:43.584Z,11.10
2019-04-26T22:41:13.445Z,11.10
2019-04-26T22:43:49.594Z,11.10
2019-04-26T22:46:46.489Z,11.20
2019-04-26T22:49:10.009Z,11.20
2019-04-26T22:51:39.244Z,11.20
2019-04-26T22:54:08.436Z,11.20
2019-04-26T22:56:38.431Z,11.20
2019-04-26T22:59:08.149Z,11.20
2019-04-26T23:01:39.216Z,11.20
2019-04-26T23:04:08.787Z,11.20
2019-04-26T23:06:37.971Z,11.20
2019-04-26T23:09:11.652Z,11.20
2019-04-26T23:11:43.885Z,11.20
2019-04-26T23:14:30.915Z,11.20
2019-04-26T23:17:18.082Z,11.10
2019-04-26T23:19:57.973Z,11.20
2019-04-26T23:22:31.043Z,11.20
2019-04-26T23:24:58.243Z,11.20
2019-04-26T23:27:27.582Z,11.20
2019-04-26T23:29:58.277Z,11.20
2019-04-26T23:32:27.743Z,11.10
2019-04-26T23:34:58.192Z,11.10
2019-04-26T23:37:27.836Z,11.10
2019-04-26T23:39:57.042Z,11.00
2019-04-26T23:42:26.185Z,11.00
2019-04-26T23:44:55.504Z,11.00
2019-04-26T23:47:25.622Z,11.00
2019-04-26T23:49:56.953Z,11.00
2019-04-26T23:52:25.753Z,11.00
2019-04-26T23:54:54.936Z,11.00
2019-04-26T23:57:27.292Z,11.00
2019-04-26T23:59:56.482Z,11.00
